createdAt,value
2022-09-07T00:01:11.584Z,23.41
2022-09-07T00:04:17.555Z,23.39
2022-09-07T00:07:23.247Z,23.44
2022-09-07T00:10:29.458Z,23.45
2022-09-07T00:13:38.237Z,23.43
2022-09-07T00:16:43.750Z,23.39
2022-09-07T00:19:50.251Z,23.32
2022-09-07T00:22:55.623Z,23.34
2022-09-07T00:26:09.872Z,23.31
2022-09-07T00:29:15.316Z,23.27
2022-09-07T00:32:21.264Z,23.18
2022-09-07T00:35:26.986Z,23.20
2022-09-07T00:38:32.903Z,23.20
2022-09-07T00:41:38.513Z,23.39
2022-09-07T00:44:44.309Z,23.25
2022-09-07T00:48:15.561Z,23.24
2022-09-07T00:51:30.690Z,23.36
2022-09-07T00:54:46.388Z,23.42
2022-09-07T00:57:55.220Z,23.41
2022-09-07T01:01:00.786Z,23.39
2022-09-07T01:04:07.242Z,23.34
2022-09-07T01:07:13.198Z,23.34
2022-09-07T01:10:19.945Z,23.35
2022-09-07T01:13:25.492Z,23.37
2022-09-07T01:16:49.682Z,23.29
2022-09-07T01:20:07.854Z,23.31
2022-09-07T01:23:43.850Z,23.23
2022-09-07T01:27:03.763Z,23.14
2022-09-07T01:30:16.885Z,23.24
2022-09-07T01:33:28.174Z,23.20
2022-09-07T01:37:05.675Z,23.21
2022-09-07T01:40:17.564Z,23.12
2022-09-07T01:43:43.402Z,23.12
2022-09-07T01:46:51.627Z,23.13
2022-09-07T01:50:09.599Z,23.11
2022-09-07T01:53:29.003Z,23.08
2022-09-07T01:56:40.724Z,22.90
2022-09-07T01:59:58.045Z,23.06
2022-09-07T02:03:31.517Z,22.87
2022-09-07T02:06:50.233Z,22.95
2022-09-07T02:10:01.275Z,23.04
2022-09-07T02:13:20.402Z,23.09
2022-09-07T02:16:31.662Z,23.19
2022-09-07T02:19:43.761Z,23.13
2022-09-07T02:22:58.623Z,23.03
2022-09-07T02:26:10.361Z,22.30
2022-09-07T02:29:16.560Z,22.10
2022-09-07T02:32:22.283Z,22.43
2022-09-07T02:35:28.024Z,22.19
2022-09-07T02:38:34.637Z,22.36
2022-09-07T02:41:42.834Z,22.00
2022-09-07T02:44:48.639Z,22.03
2022-09-07T02:48:39.684Z,22.36
2022-09-07T02:52:08.115Z,22.40
2022-09-07T02:55:31.905Z,22.35
2022-09-07T02:58:50.842Z,22.33
2022-09-07T03:02:26.175Z,22.44
2022-09-07T03:05:50.316Z,22.56
2022-09-07T03:08:59.299Z,22.54
2022-09-07T03:12:06.234Z,22.55
2022-09-07T03:15:18.479Z,22.66
2022-09-07T03:18:25.890Z,22.71
2022-09-07T03:21:32.802Z,22.66
2022-09-07T03:24:38.345Z,22.80
2022-09-07T03:27:44.081Z,22.73
2022-09-07T03:30:49.826Z,22.76
2022-09-07T03:33:56.612Z,22.82
2022-09-07T03:37:02.532Z,22.83
2022-09-07T03:40:13.804Z,22.83
2022-09-07T03:43:19.341Z,22.85
2022-09-07T03:46:24.865Z,22.84
2022-09-07T03:49:30.525Z,22.87
2022-09-07T03:52:36.932Z,22.81
2022-09-07T03:55:42.667Z,22.80
2022-09-07T03:58:49.864Z,22.79
2022-09-07T04:01:55.402Z,22.77
2022-09-07T04:05:01.001Z,22.80
2022-09-07T04:08:06.566Z,22.75
2022-09-07T04:11:18.264Z,22.77
2022-09-07T04:14:24.163Z,22.76
2022-09-07T04:17:29.760Z,22.63
2022-09-07T04:20:35.372Z,22.72
2022-09-07T04:23:42.826Z,22.63
2022-09-07T04:26:48.114Z,22.57
2022-09-07T04:29:54.019Z,22.69
2022-09-07T04:32:59.700Z,22.68
2022-09-07T04:36:05.847Z,22.44
2022-09-07T04:39:11.687Z,22.47
2022-09-07T04:42:17.386Z,22.51
2022-09-07T04:45:23.052Z,22.36
2022-09-07T04:48:28.737Z,22.48
2022-09-07T04:51:35.219Z,22.45
2022-09-07T04:54:40.848Z,22.32
2022-09-07T04:57:50.547Z,22.39
2022-09-07T05:01:00.809Z,22.48
2022-09-07T05:04:06.186Z,22.53
2022-09-07T05:07:11.256Z,22.47
2022-09-07T05:10:16.584Z,22.44
2022-09-07T05:13:22.342Z,22.46
2022-09-07T05:16:29.506Z,22.53
2022-09-07T05:19:35.621Z,22.44
2022-09-07T05:22:41.533Z,22.38
2022-09-07T05:25:47.599Z,22.48
2022-09-07T05:32:19.222Z,22.75
2022-09-07T05:35:24.343Z,22.80
2022-09-07T05:38:30.212Z,22.77
2022-09-07T05:41:36.003Z,22.94
2022-09-07T05:47:51.437Z,22.88
2022-09-07T05:50:56.919Z,22.98
2022-09-07T05:54:02.479Z,23.11
2022-09-07T05:57:11.379Z,23.08
2022-09-07T06:00:17.290Z,23.12
2022-09-07T06:03:25.393Z,23.14
2022-09-07T06:06:31.507Z,23.21
2022-09-07T06:13:03.897Z,23.21
2022-09-07T06:16:11.845Z,23.08
2022-09-07T06:19:17.214Z,23.16
2022-09-07T06:22:22.706Z,23.32
2022-09-07T06:25:28.587Z,23.32
2022-09-07T06:28:36.695Z,23.62
2022-09-07T06:35:07.975Z,23.55
2022-09-07T06:38:13.444Z,23.71
2022-09-07T06:44:56.358Z,23.88
2022-09-07T06:48:01.596Z,24.00
2022-09-07T06:51:10.382Z,23.94
2022-09-07T06:57:41.525Z,24.25
2022-09-07T07:00:48.303Z,24.31
2022-09-07T07:03:55.096Z,24.30
2022-09-07T07:07:00.682Z,24.33
2022-09-07T07:10:06.842Z,24.19
2022-09-07T07:13:12.758Z,24.35
2022-09-07T07:16:18.674Z,24.30
2022-09-07T07:19:24.507Z,24.43
2022-09-07T07:22:46.140Z,24.50
2022-09-07T07:25:52.783Z,24.65
2022-09-07T07:32:05.803Z,24.82
2022-09-07T07:35:12.454Z,24.82
2022-09-07T07:42:03.031Z,24.82
2022-09-07T07:48:38.075Z,25.10
2022-09-07T07:58:37.170Z,25.30
2022-09-07T08:01:44.122Z,25.36
2022-09-07T08:04:49.981Z,25.42
2022-09-07T08:07:55.495Z,25.42
2022-09-07T08:11:09.236Z,25.39
2022-09-07T08:14:14.961Z,25.16
2022-09-07T08:17:20.337Z,25.23
2022-09-07T08:20:26.074Z,25.18
2022-09-07T08:23:33.153Z,25.39
2022-09-07T08:26:39.538Z,25.43
2022-09-07T08:29:44.833Z,25.43
2022-09-07T08:32:50.381Z,25.35
2022-09-07T08:35:58.425Z,25.71
2022-09-07T08:39:04.051Z,25.48
2022-09-07T08:42:37.256Z,25.78
2022-09-07T08:45:57.561Z,26.07
2022-09-07T08:49:07.376Z,26.25
2022-09-07T08:52:48.502Z,26.29
2022-09-07T08:56:06.968Z,26.00
2022-09-07T08:59:22.141Z,26.09
2022-09-07T09:02:31.123Z,26.24
2022-09-07T09:05:44.369Z,26.18
2022-09-07T09:09:25.780Z,26.02
2022-09-07T09:12:52.423Z,26.16
2022-09-07T09:16:36.106Z,26.25
2022-09-07T09:20:06.786Z,26.21
2022-09-07T09:23:14.798Z,26.29
2022-09-07T09:26:32.030Z,26.44
2022-09-07T09:29:37.909Z,26.30
2022-09-07T09:32:46.971Z,26.72
2022-09-07T09:35:54.670Z,26.55
2022-09-07T09:39:03.979Z,26.51
2022-09-07T09:42:10.927Z,26.71
2022-09-07T09:45:21.730Z,26.66
2022-09-07T09:48:32.977Z,26.99
2022-09-07T09:55:41.172Z,26.74
2022-09-07T10:06:04.893Z,26.79
2022-09-07T10:09:18.671Z,26.89
2022-09-07T10:12:32.410Z,27.01
2022-09-07T10:15:41.135Z,27.05
2022-09-07T10:18:58.777Z,27.04
2022-09-07T10:22:21.092Z,27.16
2022-09-07T10:25:39.994Z,27.35
2022-09-07T10:32:35.764Z,27.20
2022-09-07T10:36:01.038Z,27.14
2022-09-07T10:39:16.784Z,27.14
2022-09-07T10:42:34.475Z,27.65
2022-09-07T10:45:53.320Z,27.74
2022-09-07T10:49:25.618Z,27.54
2022-09-07T10:52:44.067Z,27.80
2022-09-07T10:56:07.926Z,27.45
2022-09-07T11:00:10.226Z,27.88
2022-09-07T11:03:55.101Z,28.21
2022-09-07T11:07:26.877Z,28.42
2022-09-07T11:10:59.438Z,27.85
2022-09-07T11:14:13.888Z,27.69
2022-09-07T11:17:25.295Z,27.94
2022-09-07T11:20:32.791Z,28.11
2022-09-07T11:24:01.762Z,28.35
2022-09-07T11:27:14.502Z,28.39
2022-09-07T11:30:32.351Z,28.51
2022-09-07T11:34:26.284Z,28.16
2022-09-07T11:37:49.859Z,27.85
2022-09-07T11:41:01.357Z,28.06
2022-09-07T11:44:25.454Z,28.25
2022-09-07T11:47:49.185Z,28.16
2022-09-07T11:51:04.247Z,28.04
2022-09-07T11:54:55.211Z,27.93
2022-09-07T11:58:21.857Z,27.98
2022-09-07T12:01:43.441Z,28.21
2022-09-07T12:05:12.936Z,28.37
2022-09-07T12:08:35.105Z,28.45
2022-09-07T12:11:58.822Z,28.29
2022-09-07T12:15:17.552Z,28.07
2022-09-07T12:18:53.783Z,28.08
2022-09-07T12:22:00.690Z,28.15
2022-09-07T12:25:11.383Z,28.11
2022-09-07T12:28:37.962Z,28.30
2022-09-07T12:31:59.535Z,28.17
2022-09-07T12:35:28.646Z,28.08
2022-09-07T12:38:37.350Z,28.38
2022-09-07T12:41:47.309Z,28.39
2022-09-07T12:45:47.648Z,28.47
2022-09-07T12:49:07.464Z,28.42
2022-09-07T12:52:42.452Z,28.56
2022-09-07T12:56:21.030Z,28.36
2022-09-07T12:59:53.564Z,28.37
2022-09-07T13:03:51.819Z,28.74
2022-09-07T13:07:18.566Z,28.79
2022-09-07T13:10:36.415Z,29.09
2022-09-07T13:17:33.000Z,28.86
2022-09-07T13:20:41.587Z,29.05
2022-09-07T13:27:52.633Z,29.18
2022-09-07T13:31:23.245Z,29.26
2022-09-07T13:34:34.817Z,29.32
2022-09-07T13:37:54.944Z,28.93
2022-09-07T13:41:26.647Z,28.95
2022-09-07T13:44:34.476Z,29.11
2022-09-07T13:47:52.909Z,28.79
2022-09-07T13:51:19.253Z,28.64
2022-09-07T13:54:43.541Z,28.60
2022-09-07T13:58:11.940Z,28.57
2022-09-07T14:01:24.884Z,28.50
2022-09-07T14:04:44.723Z,28.58
2022-09-07T14:07:50.175Z,28.47
2022-09-07T14:10:56.404Z,28.60
2022-09-07T14:14:17.777Z,28.55
2022-09-07T14:17:23.257Z,28.72
2022-09-07T14:20:29.306Z,28.89
2022-09-07T14:23:37.293Z,28.82
2022-09-07T14:26:48.215Z,28.78
2022-09-07T14:29:53.743Z,28.79
2022-09-07T14:33:18.064Z,28.75
2022-09-07T14:36:44.836Z,28.95
2022-09-07T14:39:53.257Z,28.82
2022-09-07T14:42:59.020Z,28.70
2022-09-07T14:46:26.365Z,28.64
2022-09-07T14:49:31.776Z,28.86
2022-09-07T14:53:33.180Z,28.81
2022-09-07T14:56:11.303Z,28.92
2022-09-07T14:59:40.817Z,28.73
2022-09-07T15:02:46.432Z,28.62
2022-09-07T15:05:52.147Z,28.67
2022-09-07T15:08:58.127Z,28.71
2022-09-07T15:12:37.934Z,28.65
2022-09-07T15:16:02.177Z,28.61
2022-09-07T15:19:31.930Z,28.59
2022-09-07T15:22:36.949Z,28.61
2022-09-07T15:25:48.142Z,28.51
2022-09-07T15:29:12.185Z,28.59
2022-09-07T15:32:18.777Z,28.73
2022-09-07T15:35:24.565Z,28.62
2022-09-07T15:42:00.424Z,28.79
2022-09-07T15:45:23.868Z,28.78
2022-09-07T15:48:29.959Z,28.61
2022-09-07T15:55:01.898Z,28.75
2022-09-07T15:58:11.698Z,28.79
2022-09-07T16:04:44.209Z,28.72
2022-09-07T16:11:25.952Z,28.80
2022-09-07T16:14:34.992Z,28.66
2022-09-07T16:17:47.343Z,28.59
2022-09-07T16:20:53.409Z,28.58
2022-09-07T16:23:59.196Z,28.58
2022-09-07T16:27:06.563Z,28.54
2022-09-07T16:30:13.516Z,28.58
2022-09-07T16:33:19.453Z,28.56
2022-09-07T16:36:25.449Z,28.60
2022-09-07T16:39:32.081Z,28.57
2022-09-07T16:42:37.718Z,28.46
2022-09-07T16:49:11.509Z,28.31
2022-09-07T16:52:17.325Z,28.28
2022-09-07T16:55:23.136Z,28.28
2022-09-07T16:58:37.771Z,28.10
2022-09-07T17:01:43.795Z,27.99
2022-09-07T17:04:50.927Z,27.95
2022-09-07T17:07:56.595Z,27.81
2022-09-07T17:11:07.911Z,27.73
2022-09-07T17:14:14.140Z,27.69
2022-09-07T17:17:20.581Z,27.66
2022-09-07T17:20:26.575Z,27.60
2022-09-07T17:23:39.431Z,27.55
2022-09-07T17:26:50.839Z,27.41
2022-09-07T17:29:57.240Z,27.36
2022-09-07T17:33:02.822Z,27.20
2022-09-07T17:36:14.002Z,27.07
2022-09-07T17:39:19.876Z,26.94
2022-09-07T17:43:38.878Z,26.88
2022-09-07T17:45:54.261Z,26.84
2022-09-07T17:49:01.911Z,26.80
2022-09-07T17:52:07.391Z,26.76
2022-09-07T17:55:12.901Z,26.65
2022-09-07T17:58:19.209Z,26.60
2022-09-07T18:01:27.347Z,26.56
2022-09-07T18:04:36.168Z,26.37
2022-09-07T18:07:42.540Z,26.48
2022-09-07T18:14:15.137Z,26.33
2022-09-07T18:17:21.504Z,26.27
2022-09-07T18:20:26.919Z,26.16
2022-09-07T18:23:32.200Z,26.16
2022-09-07T18:26:39.424Z,26.02
2022-09-07T18:29:44.879Z,25.96
2022-09-07T18:32:51.527Z,25.83
2022-09-07T18:35:58.144Z,25.84
2022-09-07T18:39:05.063Z,25.86
2022-09-07T18:42:10.889Z,25.90
2022-09-07T18:45:32.266Z,25.80
2022-09-07T18:48:39.005Z,25.82
2022-09-07T18:55:10.918Z,25.79
2022-09-07T18:58:16.868Z,25.80
2022-09-07T19:01:23.567Z,25.60
2022-09-07T19:05:49.690Z,25.74
2022-09-07T19:07:54.717Z,25.68
2022-09-07T19:11:13.308Z,25.68
2022-09-07T19:14:19.242Z,25.70
2022-09-07T19:17:25.123Z,25.61
2022-09-07T19:24:37.760Z,25.41
2022-09-07T19:27:43.394Z,25.38
2022-09-07T19:30:49.368Z,25.28
2022-09-07T19:33:59.946Z,25.24
2022-09-07T19:37:07.457Z,25.18
2022-09-07T19:40:17.172Z,25.12
2022-09-07T19:43:25.885Z,24.97
2022-09-07T19:46:31.337Z,24.90
2022-09-07T19:49:37.297Z,24.81
2022-09-07T19:52:43.106Z,24.79
2022-09-07T19:55:48.810Z,24.82
2022-09-07T19:58:54.616Z,24.76
2022-09-07T20:02:00.388Z,24.64
2022-09-07T20:05:07.598Z,24.73
2022-09-07T20:08:13.089Z,24.69
2022-09-07T20:11:19.109Z,24.64
2022-09-07T20:14:25.175Z,24.62
2022-09-07T20:17:35.115Z,24.53
2022-09-07T20:20:40.847Z,24.53
2022-09-07T20:23:46.781Z,24.45
2022-09-07T20:26:52.610Z,24.53
2022-09-07T20:29:58.114Z,24.52
2022-09-07T20:33:03.912Z,24.44
2022-09-07T20:36:15.819Z,24.48
2022-09-07T20:39:22.220Z,24.26
2022-09-07T20:42:27.964Z,24.20
2022-09-07T20:45:35.691Z,24.27
2022-09-07T20:48:41.447Z,24.27
2022-09-07T20:51:47.042Z,24.23
2022-09-07T20:54:52.798Z,24.24
2022-09-07T20:57:58.896Z,24.38
2022-09-07T21:01:04.775Z,24.39
2022-09-07T21:04:10.311Z,24.27
2022-09-07T21:07:15.676Z,24.35
2022-09-07T21:10:21.045Z,24.35
2022-09-07T21:13:26.734Z,24.21
2022-09-07T21:16:33.595Z,24.07
2022-09-07T21:19:39.954Z,23.95
2022-09-07T21:22:45.266Z,23.96
2022-09-07T21:25:51.154Z,23.90
2022-09-07T21:29:01.772Z,23.93
2022-09-07T21:32:07.461Z,23.95
2022-09-07T21:35:13.155Z,23.89
2022-09-07T21:38:18.957Z,23.87
2022-09-07T21:41:25.913Z,23.86
2022-09-07T21:44:31.637Z,23.86
2022-09-07T21:47:37.513Z,23.77
2022-09-07T21:50:43.073Z,23.77
2022-09-07T21:53:53.423Z,23.76
2022-09-07T21:56:58.936Z,23.68
2022-09-07T22:00:08.684Z,23.74
2022-09-07T22:03:14.066Z,23.84
2022-09-07T22:06:19.876Z,23.51
2022-09-07T22:09:25.434Z,23.62
2022-09-07T22:12:31.513Z,23.52
2022-09-07T22:15:41.841Z,23.70
2022-09-07T22:18:48.810Z,23.64
2022-09-07T22:21:54.547Z,23.64
2022-09-07T22:25:00.379Z,23.78
2022-09-07T22:28:06.016Z,23.68
2022-09-07T22:31:32.957Z,23.67
2022-09-07T22:34:38.642Z,23.64
2022-09-07T22:37:44.638Z,23.50
2022-09-07T22:40:49.939Z,23.55
2022-09-07T22:43:55.688Z,23.60
2022-09-07T22:47:01.408Z,23.64
2022-09-07T22:50:07.252Z,23.63
2022-09-07T22:53:12.804Z,23.69
2022-09-07T22:56:21.203Z,23.61
2022-09-07T22:59:26.985Z,23.59
2022-09-07T23:02:32.320Z,23.55
2022-09-07T23:05:38.722Z,23.65
2022-09-07T23:08:44.362Z,23.64
2022-09-07T23:11:50.325Z,23.43
2022-09-07T23:14:55.958Z,23.53
2022-09-07T23:18:01.405Z,23.51
2022-09-07T23:21:06.821Z,23.48
2022-09-07T23:24:14.732Z,23.38
2022-09-07T23:27:19.925Z,23.53
2022-09-07T23:30:25.512Z,23.46
2022-09-07T23:33:32.039Z,23.40
2022-09-07T23:36:37.775Z,23.39
2022-09-07T23:39:44.832Z,23.46
2022-09-07T23:42:50.189Z,23.46
2022-09-07T23:45:56.407Z,23.48
2022-09-07T23:49:02.199Z,23.47
2022-09-07T23:52:07.889Z,23.54
2022-09-07T23:55:13.574Z,23.35
2022-09-07T23:58:20.713Z,23.26
